Aviation Digital Data Service (ADDS)

Output produced by METARs form (0356 UTC 06 March 2015)
found at http://aviationweather.gov/adds/metars/
 
KLBE 052322Z 0600/0624 33005KT P6SM BKN100 
     FM060400 VRB03KT P6SM SCT035